Time;durP1;ratioP1;P1;durP2;ratioP2;P2;SDS_P1;SDS_P2;PMS_P1;PMS_P2;Temp;Humidity;BMP_temperature;BMP_pressure;BME280_temperature;BME280_humidity;BME280_pressure;Samples;Min_cycle;Max_cycle;Signal;HPM_P1;HPM_P2
2020/12/24 00:02:23;;;;;;;55.03;35.45;;;230.40;2252.80;;;;;;5021180;28;20435;-82
2020/12/24 00:04:49;;;;;;;51.25;35.45;;;230.40;2252.80;;;;;;5031250;28;20038;-80
2020/12/24 00:07:15;;;;;;;53.42;35.08;;;230.40;2252.80;;;;;;5016987;28;20073;-80
2020/12/24 00:09:41;;;;;;;52.85;35.20;;;230.40;2252.80;;;;;;5017451;28;20438;-80
2020/12/24 00:12:07;;;;;;;59.35;37.17;;;230.50;2252.80;;;;;;5017619;28;20065;-79
2020/12/24 00:14:32;;;;;;;64.22;39.08;;;230.40;2252.80;;;;;;5031867;28;20121;-79
2020/12/24 00:16:58;;;;;;;65.00;39.17;;;230.50;2252.80;;;;;;5018991;28;20041;-80
2020/12/24 00:19:24;;;;;;;62.03;38.63;;;230.50;2252.80;;;;;;5018789;28;20028;-81
2020/12/24 00:21:49;;;;;;;71.22;42.00;;;230.50;2252.80;;;;;;5017416;28;20041;-81
2020/12/24 00:24:15;;;;;;;63.90;40.58;;;230.50;2252.80;;;;;;5019415;28;20022;-81
2020/12/24 00:26:42;;;;;;;62.78;37.58;;;230.50;2227.20;;;;;;5028420;28;20096;-81
2020/12/24 00:29:09;;;;;;;60.00;37.22;;;230.60;2227.20;;;;;;5025243;28;20142;-82
2020/12/24 00:31:36;;;;;;;55.83;35.00;;;230.60;2227.20;;;;;;5020492;28;20029;-82
2020/12/24 00:34:03;;;;;;;50.53;34.55;;;230.60;2227.20;;;;;;5002066;28;20058;-82
2020/12/24 00:36:29;;;;;;;55.92;32.55;;;230.70;2227.20;;;;;;5001698;28;20355;-81
2020/12/24 00:38:55;;;;;;;49.22;34.40;;;230.70;2227.20;;;;;;5019545;28;20029;-81
2020/12/24 00:41:39;;;;;;;53.42;35.03;;;230.70;2227.20;;;;;;5001845;28;20065;-82
2020/12/24 00:44:05;;;;;;;54.60;37.13;;;230.80;2201.60;;;;;;5021632;28;20351;-82
2020/12/24 00:46:31;;;;;;;55.15;33.88;;;230.80;2201.60;;;;;;5020196;28;20026;-82
2020/12/24 00:48:56;;;;;;;54.10;36.95;;;230.80;2201.60;;;;;;5018861;28;20030;-82
2020/12/24 00:51:22;;;;;;;54.60;35.67;;;230.80;2201.60;;;;;;5019072;28;20104;-81
2020/12/24 00:53:48;;;;;;;53.33;35.80;;;230.80;2201.60;;;;;;5001252;28;20104;-82
2020/12/24 00:59:35;;;;;;;52.00;34.83;;;230.80;2201.60;;;;;;5018352;28;20084;-82
2020/12/24 01:02:01;;;;;;;49.13;34.58;;;230.80;2201.60;;;;;;5018907;28;20026;-82
2020/12/24 01:04:27;;;;;;;49.95;32.92;;;230.90;2201.60;;;;;;5019320;28;20138;-81
2020/12/24 01:06:52;;;;;;;52.38;34.78;;;230.90;2201.60;;;;;;5019120;28;20064;-83
2020/12/24 01:09:18;;;;;;;55.15;35.85;;;230.90;2201.60;;;;;;5001543;28;20022;-83
2020/12/24 01:12:02;;;;;;;52.15;33.45;;;230.90;2201.60;;;;;;5018616;28;20029;-81
2020/12/24 01:14:28;;;;;;;44.00;33.38;;;230.90;2176.00;;;;;;5018622;28;20026;-82
2020/12/24 01:16:53;;;;;;;60.47;37.63;;;230.90;2176.00;;;;;;5018400;28;20068;-82
2020/12/24 01:19:19;;;;;;;55.35;34.78;;;231.00;2176.00;;;;;;5019160;28;20065;-81
2020/12/24 01:21:48;;;;;;;52.85;36.55;;;231.00;2176.00;;;;;;5018599;28;20022;-82
2020/12/24 01:24:14;;;;;;;52.42;34.63;;;230.90;2176.00;;;;;;5018406;28;20037;-82
2020/12/24 01:30:21;;;;;;;58.83;35.20;;;231.00;2176.00;;;;;;5018679;28;20306;-82
2020/12/24 01:32:48;;;;;;;57.65;37.72;;;231.00;2176.00;;;;;;5018323;28;20022;-82
2020/12/24 01:35:13;;;;;;;49.60;33.95;;;230.90;2176.00;;;;;;5000913;28;20057;-82
2020/12/24 01:37:39;;;;;;;60.50;36.47;;;230.90;2176.00;;;;;;5018745;28;20061;-83
2020/12/24 01:40:06;;;;;;;62.15;35.97;;;230.90;2176.00;;;;;;5001269;28;20067;-83
2020/12/24 01:42:32;;;;;;;51.50;34.78;;;230.90;2176.00;;;;;;5018152;28;20022;-82
2020/12/24 01:44:57;;;;;;;59.22;37.05;;;230.90;2176.00;;;;;;5018331;28;20030;-84
2020/12/24 01:47:23;;;;;;;59.88;36.72;;;230.80;2176.00;;;;;;5018251;28;20026;-82
2020/12/24 01:49:49;;;;;;;49.53;35.47;;;230.90;2176.00;;;;;;5018032;28;20026;-82
2020/12/24 01:52:38;;;;;;;54.88;35.70;;;230.80;2176.00;;;;;;5000279;28;20339;-82
2020/12/24 01:55:07;;;;;;;53.65;35.05;;;230.90;2176.00;;;;;;4998218;28;20042;-82
2020/12/24 01:57:33;;;;;;;53.50;34.40;;;230.90;2176.00;;;;;;4980948;28;20125;-82
2020/12/24 01:59:59;;;;;;;53.50;36.40;;;230.80;2201.60;;;;;;4981005;28;20030;-82
2020/12/24 02:02:25;;;;;;;57.00;37.05;;;230.80;2176.00;;;;;;4997645;28;20084;-82
2020/12/24 02:04:50;;;;;;;57.13;35.15;;;230.90;2176.00;;;;;;4998145;28;20029;-82
2020/12/24 02:07:17;;;;;;;54.67;34.83;;;231.00;2176.00;;;;;;4980694;28;20038;-81
2020/12/24 02:09:50;;;;;;;58.33;37.60;;;230.90;2176.00;;;;;;4980780;28;20439;-82
2020/12/24 02:12:53;;;;;;;59.88;35.17;;;230.90;2176.00;;;;;;4998027;28;20026;-80
2020/12/24 02:15:19;;;;;;;64.80;37.67;;;230.90;2176.00;;;;;;4997886;28;20030;-82
2020/12/24 02:17:44;;;;;;;51.92;35.05;;;230.90;2176.00;;;;;;4989947;28;20045;-81
2020/12/24 02:20:10;;;;;;;57.15;35.85;;;230.90;2176.00;;;;;;4998097;28;20072;-81
2020/12/24 02:22:36;;;;;;;48.95;35.15;;;230.90;2176.00;;;;;;4980755;28;20022;-82
2020/12/24 02:25:01;;;;;;;55.00;37.15;;;230.90;2176.00;;;;;;4997938;28;20176;-81
2020/12/24 02:28:06;;;;;;;60.53;37.88;;;230.90;2176.00;;;;;;4974105;28;20042;-82
2020/12/24 02:30:32;;;;;;;66.63;37.40;;;230.90;2176.00;;;;;;4978182;28;20037;-80
2020/12/24 02:32:57;;;;;;;57.15;38.28;;;230.90;2176.00;;;;;;4996380;28;20026;-82
2020/12/24 02:35:23;;;;;;;62.45;39.90;;;230.90;2176.00;;;;;;4980192;28;20027;-82
2020/12/24 02:37:49;;;;;;;60.42;38.88;;;230.90;2176.00;;;;;;4997932;28;20041;-83
2020/12/24 02:40:15;;;;;;;59.33;39.40;;;230.90;2176.00;;;;;;5000626;28;20026;-82
2020/12/24 02:42:41;;;;;;;58.88;39.33;;;230.80;2176.00;;;;;;4999077;28;20032;-82
2020/12/24 02:45:07;;;;;;;61.28;40.35;;;230.80;2201.60;;;;;;4997686;28;20396;-81
2020/12/24 02:47:36;;;;;;;62.17;40.92;;;230.80;2176.00;;;;;;4997570;28;20078;-81
2020/12/24 02:50:04;;;;;;;56.67;38.80;;;230.80;2176.00;;;;;;4998055;28;20027;-81
2020/12/24 02:52:30;;;;;;;61.92;40.00;;;230.80;2176.00;;;;;;4997326;28;20105;-81
2020/12/24 02:54:55;;;;;;;71.68;39.92;;;230.80;2201.60;;;;;;4980733;28;20122;-82
2020/12/24 03:01:22;;;;;;;67.95;40.80;;;230.80;2176.00;;;;;;4997753;28;20447;-82
2020/12/24 03:03:48;;;;;;;65.68;39.55;;;230.80;2176.00;;;;;;4997202;28;20022;-82
2020/12/24 03:06:13;;;;;;;60.60;37.78;;;230.80;2201.60;;;;;;4997634;28;20031;-82
2020/12/24 03:08:39;;;;;;;59.53;39.13;;;230.80;2201.60;;;;;;4980377;28;20468;-82
2020/12/24 03:11:05;;;;;;;50.97;38.08;;;230.70;2201.60;;;;;;4997573;28;20034;-82
2020/12/24 03:14:26;;;;;;;54.53;37.95;;;230.80;2176.00;;;;;;4997535;28;20030;-81
2020/12/24 03:16:52;;;;;;;57.60;37.60;;;230.80;2176.00;;;;;;4997076;28;20037;-82
2020/12/24 03:19:18;;;;;;;60.75;39.63;;;230.70;2176.00;;;;;;4980024;28;20113;-81
2020/12/24 03:21:43;;;;;;;55.00;36.42;;;230.80;2176.00;;;;;;4979429;28;20309;-81
2020/12/24 03:24:09;;;;;;;51.38;36.85;;;230.70;2176.00;;;;;;4983062;28;20022;-81
2020/12/24 03:26:35;;;;;;;47.97;34.33;;;230.80;2176.00;;;;;;5001272;28;20077;-81
2020/12/24 03:29:00;;;;;;;54.17;35.75;;;230.80;2176.00;;;;;;5000949;28;20049;-83
2020/12/24 03:31:26;;;;;;;48.47;34.25;;;230.70;2176.00;;;;;;5000653;28;20036;-81
2020/12/24 03:33:54;;;;;;;56.13;36.17;;;230.80;2176.00;;;;;;5000903;28;20037;-83
2020/12/24 03:36:21;;;;;;;55.00;34.72;;;230.80;2150.40;;;;;;5001028;28;20026;-82
2020/12/24 03:38:47;;;;;;;45.72;32.42;;;230.70;2150.40;;;;;;4983707;28;20030;-83
2020/12/24 03:41:12;;;;;;;49.35;34.03;;;230.70;2150.40;;;;;;5000875;28;20025;-80
2020/12/24 03:43:38;;;;;;;51.03;33.22;;;230.70;2150.40;;;;;;4983533;28;20034;-81
2020/12/24 03:46:04;;;;;;;49.38;32.60;;;230.70;2150.40;;;;;;5000775;28;20118;-81
2020/12/24 03:48:30;;;;;;;43.45;31.00;;;230.60;2150.40;;;;;;5000164;28;20030;-81
2020/12/24 03:50:56;;;;;;;49.67;32.95;;;230.60;2150.40;;;;;;5000368;28;20058;-81
2020/12/24 03:53:22;;;;;;;50.90;34.58;;;230.60;2150.40;;;;;;4990541;28;20132;-82
2020/12/24 03:55:48;;;;;;;58.45;36.67;;;230.60;2150.40;;;;;;5011422;28;20347;-82
2020/12/24 03:58:14;;;;;;;52.20;36.47;;;230.60;2150.40;;;;;;5019058;28;20018;-82
2020/12/24 04:00:40;;;;;;;56.63;36.03;;;230.60;2150.40;;;;;;5019687;28;20041;-82
2020/12/24 04:03:07;;;;;;;49.60;33.22;;;230.50;2150.40;;;;;;5020186;28;20053;-82
2020/12/24 04:05:33;;;;;;;49.47;31.30;;;230.50;2150.40;;;;;;5020225;28;20029;-84
2020/12/24 04:07:58;;;;;;;46.15;31.25;;;230.50;2150.40;;;;;;5020927;28;20033;-83
2020/12/24 04:10:24;;;;;;;42.15;28.60;;;230.50;2150.40;;;;;;5003201;28;20030;-82
2020/12/24 04:16:12;;;;;;;45.40;30.60;;;230.50;2150.40;;;;;;5019709;28;20036;-82
2020/12/24 04:18:38;;;;;;;42.95;28.42;;;230.50;2150.40;;;;;;5019980;28;20018;-82
2020/12/24 04:21:04;;;;;;;39.05;27.73;;;230.50;2150.40;;;;;;5019961;28;20061;-82
2020/12/24 04:23:30;;;;;;;37.65;25.17;;;230.50;2150.40;;;;;;5019653;28;20025;-82
2020/12/24 04:25:55;;;;;;;39.28;26.83;;;230.50;2150.40;;;;;;5019587;28;20034;-81
2020/12/24 04:31:56;;;;;;;35.03;24.90;;;230.50;2150.40;;;;;;5019434;28;20048;-80
2020/12/24 04:34:22;;;;;;;39.63;25.75;;;230.50;2150.40;;;;;;5018346;28;20038;-81
2020/12/24 04:36:50;;;;;;;43.50;28.00;;;230.50;2150.40;;;;;;5018871;28;20029;-81
2020/12/24 04:39:16;;;;;;;40.80;26.27;;;230.50;2150.40;;;;;;5019254;28;20036;-80
2020/12/24 04:41:42;;;;;;;38.00;27.23;;;230.50;2150.40;;;;;;5019602;28;20025;-82
2020/12/24 04:44:27;;;;;;;38.38;27.45;;;230.50;2150.40;;;;;;5002013;28;20026;-82
2020/12/24 04:46:55;;;;;;;41.90;29.33;;;230.50;2150.40;;;;;;5019249;28;20024;-83
2020/12/24 04:49:25;;;;;;;43.72;28.10;;;230.50;2150.40;;;;;;5023643;28;20034;-83
2020/12/24 04:51:51;;;;;;;43.15;27.75;;;230.50;2150.40;;;;;;5005926;28;20458;-84
2020/12/24 04:54:17;;;;;;;42.58;29.35;;;230.50;2150.40;;;;;;5020988;28;20050;-82
2020/12/24 04:56:43;;;;;;;44.97;30.40;;;230.50;2150.40;;;;;;5018889;28;20061;-82
2020/12/24 04:59:09;;;;;;;42.70;29.90;;;230.50;2150.40;;;;;;5018770;28;20049;-82
2020/12/24 05:01:35;;;;;;;41.65;27.83;;;230.50;2150.40;;;;;;5002119;28;20029;-81
2020/12/24 05:04:01;;;;;;;41.47;28.70;;;230.60;2150.40;;;;;;5018686;28;20018;-81
2020/12/24 05:06:27;;;;;;;42.38;29.42;;;230.50;2150.40;;;;;;5020286;28;20033;-81
2020/12/24 05:08:54;;;;;;;45.20;31.00;;;230.50;2150.40;;;;;;5002353;28;20035;-82
2020/12/24 05:11:29;;;;;;;44.88;30.48;;;230.50;2150.40;;;;;;5018982;28;20091;-82
2020/12/24 05:13:56;;;;;;;45.38;31.30;;;230.50;2150.40;;;;;;5018642;28;20431;-81
2020/12/24 05:16:22;;;;;;;48.97;32.75;;;230.50;2150.40;;;;;;5018631;28;20030;-80
2020/12/24 05:18:48;;;;;;;50.83;31.92;;;230.50;2150.40;;;;;;5018621;28;20060;-81
2020/12/24 05:21:30;;;;;;;46.83;32.17;;;230.60;2150.40;;;;;;5019303;28;20026;-82
2020/12/24 05:23:56;;;;;;;51.78;35.45;;;230.60;2150.40;;;;;;5018786;28;20407;-84
2020/12/24 05:26:21;;;;;;;49.13;34.72;;;230.60;2150.40;;;;;;5004877;28;20117;-82
2020/12/24 05:28:47;;;;;;;52.33;34.25;;;230.60;2150.40;;;;;;5018479;28;20025;-83
2020/12/24 05:31:31;;;;;;;46.53;34.08;;;230.60;2150.40;;;;;;5018576;28;20110;-83
2020/12/24 05:33:57;;;;;;;56.92;37.35;;;230.60;2150.40;;;;;;5018195;28;20108;-83
2020/12/24 05:36:23;;;;;;;49.47;35.42;;;230.60;2150.40;;;;;;5018337;28;20109;-83
2020/12/24 05:38:50;;;;;;;54.67;38.00;;;230.60;2150.40;;;;;;5018524;28;20032;-83
2020/12/24 05:41:33;;;;;;;53.72;35.75;;;230.60;2150.40;;;;;;5000673;28;20018;-83
2020/12/24 05:44:09;;;;;;;51.15;35.08;;;230.60;2176.00;;;;;;5018108;28;20028;-82
2020/12/24 05:46:47;;;;;;;50.63;36.67;;;230.60;2150.40;;;;;;5018709;28;20029;-83
2020/12/24 05:49:15;;;;;;;51.92;35.60;;;230.60;2150.40;;;;;;5026011;28;20407;-84
2020/12/24 05:51:47;;;;;;;59.42;39.30;;;230.60;2150.40;;;;;;5008459;28;20040;-83
2020/12/24 05:54:15;;;;;;;57.00;38.55;;;230.60;2150.40;;;;;;5021670;28;20037;-82
2020/12/24 05:56:43;;;;;;;57.13;41.35;;;230.60;2150.40;;;;;;5000499;28;20339;-82
2020/12/24 05:59:47;;;;;;;83.72;61.90;;;230.50;2150.40;;;;;;5018172;28;20037;-83
2020/12/24 06:02:13;;;;;;;75.32;55.15;;;230.60;2150.40;;;;;;5018003;28;20022;-83
2020/12/24 06:04:44;;;;;;;70.20;49.40;;;230.50;2176.00;;;;;;5017986;28;20037;-83
2020/12/24 06:07:15;;;;;;;83.18;57.55;;;230.50;2150.40;;;;;;5018198;28;20327;-83
2020/12/24 06:09:44;;;;;;;;;;;230.50;2176.00;;;;;;5018253;28;20359;-84
2020/12/24 06:12:22;;;;;;;74.07;54.17;;;230.40;2150.40;;;;;;5000415;28;19909;-83
2020/12/24 06:14:50;;;;;;;67.13;48.28;;;230.40;2176.00;;;;;;5017429;28;20018;-83
2020/12/24 06:17:18;;;;;;;55.83;40.22;;;230.40;2176.00;;;;;;5017860;28;20025;-83
2020/12/24 06:19:44;;;;;;;46.70;32.72;;;230.40;2176.00;;;;;;5000603;28;20033;-81
2020/12/24 06:22:10;;;;;;;45.80;33.25;;;230.40;2176.00;;;;;;5000183;28;20310;-80
2020/12/24 06:24:44;;;;;;;45.00;33.00;;;230.40;2150.40;;;;;;5017449;28;20104;-81
2020/12/24 06:27:36;;;;;;;42.00;30.33;;;230.40;2150.40;;;;;;5017734;28;20037;-83
2020/12/24 06:30:05;;;;;;;42.72;31.20;;;230.50;2150.40;;;;;;5017100;28;20060;-82
2020/12/24 06:32:35;;;;;;;40.60;29.75;;;230.50;2150.40;;;;;;5017247;28;20426;-82
2020/12/24 06:35:02;;;;;;;43.35;31.60;;;230.50;2150.40;;;;;;4999035;28;20087;-82
2020/12/24 06:37:28;;;;;;;41.03;28.50;;;230.50;2150.40;;;;;;4999166;28;20072;-82
2020/12/24 06:39:54;;;;;;;42.92;29.10;;;230.50;2150.40;;;;;;5017403;28;20415;-83
2020/12/24 06:42:45;;;;;;;39.97;27.48;;;230.60;2150.40;;;;;;4999830;28;20029;-84
2020/12/24 06:45:12;;;;;;;39.55;28.75;;;230.60;2150.40;;;;;;5017119;28;20030;-83
2020/12/24 06:47:39;;;;;;;35.67;26.52;;;230.60;2150.40;;;;;;5017291;28;20112;-83
2020/12/24 06:50:33;;;;;;;38.50;26.85;;;230.60;2150.40;;;;;;5000125;28;20075;-83
2020/12/24 06:53:17;;;;;;;40.22;25.35;;;230.70;2150.40;;;;;;5017258;28;20053;-83
2020/12/24 06:55:43;;;;;;;39.05;25.20;;;230.70;2124.80;;;;;;5017095;28;20045;-83
2020/12/24 06:58:41;;;;;;;33.70;25.70;;;230.80;2124.80;;;;;;5000703;28;20038;-83
2020/12/24 07:01:12;;;;;;;34.95;22.88;;;230.80;2124.80;;;;;;5016138;28;20022;-83
2020/12/24 07:03:38;;;;;;;33.45;23.98;;;230.80;2124.80;;;;;;5022011;28;20101;-84
2020/12/24 07:06:03;;;;;;;39.03;27.45;;;230.80;2124.80;;;;;;5004099;28;20061;-83
2020/12/24 07:08:35;;;;;;;38.10;27.35;;;230.90;2124.80;;;;;;5003825;28;20030;-83
2020/12/24 07:11:02;;;;;;;43.08;31.67;;;230.90;2099.20;;;;;;5021109;28;20115;-82
2020/12/24 07:13:41;;;;;;;42.50;29.02;;;231.00;2099.20;;;;;;5020773;28;20021;-82
2020/12/24 07:16:08;;;;;;;40.75;27.25;;;231.00;2099.20;;;;;;5020740;28;20032;-83
2020/12/24 07:18:38;;;;;;;42.05;26.40;;;231.00;2099.20;;;;;;5020816;28;20416;-82
2020/12/24 07:21:09;;;;;;;45.13;27.00;;;231.10;2099.20;;;;;;5017267;28;20037;-81
2020/12/24 07:23:39;;;;;;;;;;;231.00;2099.20;;;;;;5020251;28;20160;-82
2020/12/24 07:26:08;;;;;;;39.00;25.83;;;231.10;2099.20;;;;;;5020794;28;19909;-81
2020/12/24 07:28:41;;;;;;;38.40;25.35;;;231.10;2099.20;;;;;;5018440;28;20034;-80
2020/12/24 07:31:09;;;;;;;38.05;26.40;;;231.10;2099.20;;;;;;5020301;28;20490;-82
2020/12/24 07:33:36;;;;;;;41.53;25.75;;;231.10;2099.20;;;;;;5020618;28;20400;-80
2020/12/24 07:36:06;;;;;;;40.85;27.05;;;231.10;2099.20;;;;;;5019977;28;20077;-82
2020/12/24 07:38:32;;;;;;;41.10;25.42;;;231.20;2099.20;;;;;;5019835;28;20476;-82
2020/12/24 07:40:58;;;;;;;40.55;25.90;;;231.30;2073.60;;;;;;5013519;28;20057;-84
2020/12/24 07:43:27;;;;;;;34.65;23.98;;;231.30;2073.60;;;;;;5010554;28;20030;-82
2020/12/24 07:49:14;;;;;;;41.50;26.70;;;231.30;2073.60;;;;;;5019861;28;20141;-81
2020/12/24 07:51:41;;;;;;;41.28;26.05;;;231.30;2073.60;;;;;;5039421;28;20056;-83
2020/12/24 07:54:17;;;;;;;36.00;24.80;;;256.00;2073.60;;;;;;5039185;28;20045;-82
2020/12/24 07:56:47;;;;;;;38.83;23.00;;;256.00;2048.00;;;;;;5038724;28;20037;-83
2020/12/24 07:59:15;;;;;;;35.80;24.67;;;256.10;2073.60;;;;;;5032184;28;20132;-82
2020/12/24 08:01:41;;;;;;;37.60;23.48;;;256.10;2073.60;;;;;;5031448;28;20029;-82
2020/12/24 08:04:07;;;;;;;34.25;23.17;;;256.10;2073.60;;;;;;5038451;28;20321;-83
2020/12/24 08:06:33;;;;;;;36.13;23.13;;;256.10;2048.00;;;;;;5038723;28;20164;-82
2020/12/24 08:09:13;;;;;;;42.38;25.60;;;256.20;2048.00;;;;;;5025871;28;20351;-81
2020/12/24 08:11:41;;;;;;;41.40;23.30;;;256.20;2048.00;;;;;;5017869;28;20316;-81
2020/12/24 08:14:54;;;;;;;32.60;23.13;;;256.20;2073.60;;;;;;5007639;28;20043;-82
2020/12/24 08:17:29;;;;;;;34.55;22.17;;;256.20;2048.00;;;;;;4999040;28;20085;-80
2020/12/24 08:20:16;;;;;;;34.00;23.05;;;256.20;2048.00;;;;;;4999275;28;20033;-82
2020/12/24 08:22:53;;;;;;;37.42;20.52;;;256.30;2048.00;;;;;;4999264;28;20034;-83
2020/12/24 08:25:19;;;;;;;31.30;22.15;;;256.40;2048.00;;;;;;4998963;28;20027;-80
2020/12/24 08:27:46;;;;;;;35.65;22.48;;;256.40;2048.00;;;;;;4981262;28;20035;-82
2020/12/24 08:30:14;;;;;;;35.28;23.48;;;256.40;2048.00;;;;;;4999123;28;20049;-82
2020/12/24 08:32:40;;;;;;;33.70;22.90;;;256.40;2048.00;;;;;;4998099;28;20460;-81
2020/12/24 08:35:13;;;;;;;36.83;21.45;;;256.50;2048.00;;;;;;4998329;28;20030;-80
2020/12/24 08:37:39;;;;;;;35.38;23.42;;;256.50;2048.00;;;;;;5018567;28;20482;-79
2020/12/24 08:40:19;;;;;;;30.35;19.65;;;256.50;2048.00;;;;;;5018055;28;20029;-81
2020/12/24 08:42:46;;;;;;;40.47;25.33;;;256.60;2048.00;;;;;;5018900;28;20097;-81
2020/12/24 08:45:13;;;;;;;52.33;28.75;;;256.60;2048.00;;;;;;5018833;28;20311;-81
2020/12/24 08:47:39;;;;;;;45.10;28.25;;;256.70;2048.00;;;;;;5018886;28;20246;-82
2020/12/24 08:50:05;;;;;;;42.45;26.23;;;256.70;2048.00;;;;;;5018615;28;20477;-81
2020/12/24 08:52:38;;;;;;;34.58;21.83;;;256.80;2048.00;;;;;;5018300;28;20029;-81
2020/12/24 08:55:09;;;;;;;29.48;20.40;;;256.90;2048.00;;;;;;5018381;28;20041;-80
2020/12/24 08:57:35;;;;;;;32.40;19.55;;;256.90;2022.40;;;;;;5018413;28;20029;-80
2020/12/24 09:00:05;;;;;;;31.55;20.27;;;256.90;2022.40;;;;;;5018402;28;20034;-81
2020/12/24 09:02:32;;;;;;;29.23;20.23;;;256.90;2022.40;;;;;;5018196;28;20029;-81
2020/12/24 09:05:00;;;;;;;25.80;19.17;;;256.90;2022.40;;;;;;5001897;28;20404;-80
2020/12/24 09:07:39;;;;;;;32.42;20.98;;;281.60;2048.00;;;;;;5018729;28;20033;-81
2020/12/24 09:10:09;;;;;;;35.13;20.30;;;281.60;2048.00;;;;;;5018625;28;20412;-81
2020/12/24 09:12:37;;;;;;;30.10;18.77;;;281.70;2048.00;;;;;;5019299;28;20026;-82
2020/12/24 09:15:11;;;;;;;35.33;19.90;;;281.70;2048.00;;;;;;5018356;28;20037;-81
2020/12/24 09:17:51;;;;;;;30.33;19.58;;;281.70;2048.00;;;;;;5017153;28;20385;-81
2020/12/24 09:20:33;;;;;;;30.63;19.60;;;281.80;2048.00;;;;;;5017337;28;20032;-81
2020/12/24 09:23:01;;;;;;;33.97;20.42;;;281.80;2048.00;;;;;;5018407;28;20042;-81
2020/12/24 09:25:46;;;;;;;31.02;20.30;;;281.80;2048.00;;;;;;5018342;28;20412;-81
2020/12/24 09:28:19;;;;;;;32.20;19.77;;;281.90;2048.00;;;;;;5018655;28;20352;-81
2020/12/24 09:31:22;;;;;;;37.63;24.35;;;281.90;2048.00;;;;;;5000878;28;20030;-81
2020/12/24 09:33:48;;;;;;;31.20;22.30;;;282.00;2048.00;;;;;;5018135;28;20034;-81
2020/12/24 09:36:15;;;;;;;28.52;19.52;;;282.10;2048.00;;;;;;5000791;28;20026;-81
2020/12/24 09:38:40;;;;;;;32.53;21.55;;;282.10;2048.00;;;;;;5016772;28;20319;-81
2020/12/24 09:41:06;;;;;;;31.17;20.40;;;282.20;2048.00;;;;;;5018191;28;20104;-82
2020/12/24 09:43:32;;;;;;;31.33;20.25;;;282.20;2048.00;;;;;;5016828;28;20442;-81
2020/12/24 09:45:58;;;;;;;34.35;20.77;;;282.30;2048.00;;;;;;5018353;28;20038;-81
2020/12/24 09:48:23;;;;;;;33.33;22.10;;;282.40;2048.00;;;;;;5018060;28;20347;-81
2020/12/24 09:50:49;;;;;;;42.90;23.25;;;282.40;2048.00;;;;;;5017873;28;20029;-81
2020/12/24 09:53:15;;;;;;;55.10;32.83;;;282.50;2048.00;;;;;;5017744;28;20659;-81
2020/12/24 09:55:40;;;;;;;45.85;25.02;;;307.20;2073.60;;;;;;5016306;28;20038;-81
2020/12/24 09:58:07;;;;;;;35.88;23.00;;;307.20;2073.60;;;;;;5016915;28;20053;-81
2020/12/24 10:00:33;;;;;;;32.42;21.02;;;307.20;2048.00;;;;;;5017978;28;20030;-81
2020/12/24 10:02:59;;;;;;;35.60;22.55;;;307.30;2048.00;;;;;;5017827;28;20301;-81
2020/12/24 10:05:24;;;;;;;33.72;21.92;;;307.30;2048.00;;;;;;5017867;28;20112;-81
2020/12/24 10:07:50;;;;;;;33.75;22.63;;;307.40;2048.00;;;;;;5016130;28;20037;-79
2020/12/24 10:10:16;;;;;;;36.55;23.08;;;307.40;2048.00;;;;;;5017736;28;20034;-80
2020/12/24 10:12:42;;;;;;;39.03;23.55;;;307.40;2048.00;;;;;;5017418;28;20032;-80
2020/12/24 10:15:07;;;;;;;37.80;22.85;;;307.40;2048.00;;;;;;5017412;28;20029;-81
2020/12/24 10:17:33;;;;;;;32.60;21.63;;;307.50;2048.00;;;;;;5017775;28;20026;-79
2020/12/24 10:19:59;;;;;;;31.15;21.40;;;307.50;2048.00;;;;;;5017655;28;20466;-81
2020/12/24 10:22:24;;;;;;;30.63;19.38;;;307.60;2022.40;;;;;;5017281;28;20064;-81
2020/12/24 10:24:51;;;;;;;28.58;19.83;;;307.60;2022.40;;;;;;5016161;28;20073;-81
2020/12/24 10:27:16;;;;;;;35.22;22.23;;;307.60;2022.40;;;;;;5017708;28;20041;-79
2020/12/24 10:29:42;;;;;;;29.88;21.02;;;307.60;2022.40;;;;;;5016398;28;20058;-80
2020/12/24 10:32:08;;;;;;;35.47;18.98;;;307.70;2022.40;;;;;;5016798;28;20025;-80
2020/12/24 10:34:34;;;;;;;33.78;19.15;;;307.70;2022.40;;;;;;5017128;28;20108;-80
2020/12/24 10:37:00;;;;;;;28.15;18.85;;;307.80;1996.80;;;;;;5016749;28;20042;-80
2020/12/24 10:39:27;;;;;;;28.70;18.15;;;307.80;1996.80;;;;;;5015319;28;20502;-80
2020/12/24 10:41:53;;;;;;;30.60;18.58;;;307.90;1996.80;;;;;;5017218;28;20420;-80
2020/12/24 10:44:19;;;;;;;27.05;18.20;;;307.90;1996.80;;;;;;5017223;28;20102;-80
2020/12/24 10:46:46;;;;;;;25.17;18.20;;;307.90;1996.80;;;;;;5016878;28;20034;-79
2020/12/24 10:49:13;;;;;;;29.52;17.88;;;308.00;1996.80;;;;;;5016185;28;20030;-80
2020/12/24 10:51:39;;;;;;;34.05;18.15;;;308.00;1996.80;;;;;;5016932;28;20141;-80
2020/12/24 10:54:05;;;;;;;31.15;18.60;;;308.00;1996.80;;;;;;5016882;28;20440;-80
2020/12/24 10:56:31;;;;;;;30.05;19.38;;;308.00;1996.80;;;;;;5017281;28;20026;-80
2020/12/24 10:58:57;;;;;;;27.50;20.00;;;308.00;1996.80;;;;;;4999590;28;20052;-80
2020/12/24 11:01:23;;;;;;;33.13;19.10;;;308.10;1996.80;;;;;;5017408;28;20029;-80
2020/12/24 11:03:49;;;;;;;34.25;20.00;;;308.10;1996.80;;;;;;5017160;28;20060;-80
2020/12/24 11:06:23;;;;;;;31.05;18.48;;;308.10;1996.80;;;;;;5015719;28;20034;-81
2020/12/24 11:08:50;;;;;;;30.20;20.10;;;308.10;1996.80;;;;;;5017069;28;20045;-81
2020/12/24 11:11:17;;;;;;;34.47;20.80;;;308.10;1996.80;;;;;;5017230;28;20032;-80
2020/12/24 11:13:45;;;;;;;28.55;19.55;;;308.10;1996.80;;;;;;5016942;28;20536;-81
2020/12/24 11:16:48;;;;;;;32.45;21.35;;;308.10;1996.80;;;;;;5015051;28;20049;-80
2020/12/24 11:19:13;;;;;;;32.58;22.63;;;332.80;2022.40;;;;;;5016763;28;20093;-81
2020/12/24 11:21:39;;;;;;;34.45;21.60;;;332.80;2048.00;;;;;;5016824;28;20423;-81
2020/12/24 11:24:08;;;;;;;30.88;20.92;;;332.90;2048.00;;;;;;5016776;28;20033;-81
2020/12/24 11:26:36;;;;;;;33.70;21.10;;;332.80;2048.00;;;;;;5017457;28;20305;-80
2020/12/24 11:29:02;;;;;;;32.25;21.83;;;332.90;2048.00;;;;;;5016626;28;20081;-80
2020/12/24 11:31:31;;;;;;;32.60;21.35;;;332.90;2048.00;;;;;;5016900;28;20026;-80
2020/12/24 11:33:57;;;;;;;34.70;22.10;;;332.90;2048.00;;;;;;5016689;28;20026;-81
2020/12/24 11:36:23;;;;;;;37.92;24.60;;;333.00;2073.60;;;;;;5016609;28;20408;-80
2020/12/24 11:38:51;;;;;;;38.35;22.40;;;333.10;2048.00;;;;;;4999126;28;20435;-80
2020/12/24 11:41:19;;;;;;;36.80;22.92;;;333.20;2048.00;;;;;;5016858;28;20026;-81
2020/12/24 11:43:45;;;;;;;35.58;21.27;;;333.30;2048.00;;;;;;5016232;28;20022;-80
2020/12/24 11:46:12;;;;;;;47.90;28.10;;;333.40;2048.00;;;;;;5020281;28;20030;-79
2020/12/24 11:48:38;;;;;;;32.92;22.88;;;333.60;2048.00;;;;;;5020328;28;20030;-80
2020/12/24 11:51:08;;;;;;;33.75;22.05;;;333.60;2022.40;;;;;;5020146;28;20044;-81
2020/12/24 11:53:36;;;;;;;37.35;23.15;;;358.40;1996.80;;;;;;5018403;28;20052;-80
2020/12/24 11:56:02;;;;;;;36.92;24.08;;;358.50;1971.20;;;;;;5020250;28;20045;-80
2020/12/24 11:58:28;;;;;;;40.60;21.85;;;358.60;1971.20;;;;;;5020364;28;20030;-80
2020/12/24 12:00:54;;;;;;;35.40;20.63;;;358.70;1945.60;;;;;;5020319;28;20370;-80
2020/12/24 12:03:20;;;;;;;35.17;20.08;;;358.80;1945.60;;;;;;5020119;28;20030;-80
2020/12/24 12:05:46;;;;;;;32.05;19.55;;;359.00;1920.00;;;;;;5019826;28;20053;-80
2020/12/24 12:08:12;;;;;;;33.42;19.83;;;359.10;1920.00;;;;;;5002030;28;20065;-80
2020/12/24 12:10:37;;;;;;;31.80;19.17;;;359.20;1920.00;;;;;;5018629;28;20038;-80
2020/12/24 12:13:03;;;;;;;30.05;18.17;;;359.30;1920.00;;;;;;5019262;28;20033;-81
2020/12/24 12:16:08;;;;;;;31.23;16.75;;;384.00;1894.40;;;;;;4980983;28;20094;-82
2020/12/24 12:18:35;;;;;;;27.00;15.68;;;384.20;1894.40;;;;;;4994710;28;20114;-81
2020/12/24 12:21:02;;;;;;;23.42;14.00;;;384.30;1868.80;;;;;;4980143;28;20091;-82
2020/12/24 12:23:28;;;;;;;23.60;14.73;;;384.50;1868.80;;;;;;4979441;28;20022;-78
2020/12/24 12:25:53;;;;;;;25.70;15.50;;;384.50;1868.80;;;;;;4980096;28;20085;-80
2020/12/24 12:28:19;;;;;;;26.50;15.27;;;384.60;1843.20;;;;;;4990274;28;20053;-81
2020/12/24 12:31:03;;;;;;;24.88;13.38;;;384.70;1843.20;;;;;;4999013;28;20033;-79